Time;durP1;ratioP1;P1;durP2;ratioP2;P2;SDS_P1;SDS_P2;PMS_P1;PMS_P2;Temp;Humidity;BMP_temperature;BMP_pressure;BME280_temperature;BME280_humidity;BME280_pressure;Samples;Min_cycle;Max_cycle;Signal;HPM_P1;HPM_P2
2022/07/31 00:02:10;;;;;;;12.82;5.82;;;10.90;99.90;;;;;;5041933;28;20082;-79
2022/07/31 00:04:37;;;;;;;11.18;6.13;;;11.10;99.90;;;;;;5022401;28;20018;-72
2022/07/31 00:07:04;;;;;;;14.20;6.10;;;11.10;99.90;;;;;;5039553;28;20463;-70
2022/07/31 00:09:32;;;;;;;20.45;9.63;;;11.30;99.90;;;;;;5039590;28;20009;-80
2022/07/31 00:11:59;;;;;;;9.13;5.25;;;11.40;99.90;;;;;;5038869;28;20071;-78
2022/07/31 00:14:28;;;;;;;11.23;6.25;;;11.50;99.90;;;;;;5036082;28;20754;-77
2022/07/31 00:16:56;;;;;;;10.90;5.68;;;11.60;99.90;;;;;;5041041;28;20032;-74
2022/07/31 00:19:23;;;;;;;8.35;5.70;;;11.70;99.90;;;;;;5035161;28;20082;-73
2022/07/31 00:21:50;;;;;;;9.13;5.82;;;11.70;99.90;;;;;;5040868;28;20490;-70
2022/07/31 00:24:18;;;;;;;9.05;4.97;;;11.90;99.90;;;;;;5036781;28;20025;-78
2022/07/31 00:26:48;;;;;;;7.97;4.78;;;11.90;99.90;;;;;;5040800;28;20029;-74
2022/07/31 00:29:15;;;;;;;9.43;4.82;;;12.00;99.90;;;;;;5039952;28;20025;-69
2022/07/31 00:31:43;;;;;;;7.43;4.68;;;12.10;99.90;;;;;;5039422;28;20659;-72
2022/07/31 00:34:10;;;;;;;9.45;4.60;;;12.30;99.90;;;;;;5040137;28;20051;-70
2022/07/31 00:36:37;;;;;;;10.60;5.50;;;12.30;99.90;;;;;;5052537;28;20028;-68
2022/07/31 00:39:05;;;;;;;8.30;3.42;;;12.50;99.90;;;;;;5040920;28;20683;-67
2022/07/31 00:41:43;;;;;;;12.00;4.45;;;12.60;99.90;;;;;;5039011;28;20044;-68
2022/07/31 00:44:11;;;;;;;4.88;3.63;;;12.70;99.90;;;;;;5038412;28;20025;-69
2022/07/31 00:46:40;;;;;;;10.75;3.53;;;12.80;99.90;;;;;;5047031;28;20021;-70
2022/07/31 00:49:11;;;;;;;7.40;3.67;;;12.90;99.90;;;;;;5037579;28;20029;-69
2022/07/31 00:51:39;;;;;;;8.38;3.70;;;13.00;99.90;;;;;;5038710;28;20070;-69
2022/07/31 00:54:07;;;;;;;9.45;3.25;;;13.10;99.90;;;;;;5039907;28;20020;-73
2022/07/31 00:56:38;;;;;;;7.32;3.20;;;13.20;99.90;;;;;;5036956;28;20040;-68
2022/07/31 00:59:06;;;;;;;8.77;4.18;;;13.30;99.90;;;;;;5040855;28;20063;-72
2022/07/31 01:01:33;;;;;;;7.40;3.42;;;13.40;99.90;;;;;;5036108;28;20689;-73
2022/07/31 01:04:00;;;;;;;8.73;3.03;;;13.50;99.90;;;;;;5038989;28;20021;-72
2022/07/31 01:06:27;;;;;;;4.30;2.50;;;13.60;99.90;;;;;;5038110;28;20036;-70
2022/07/31 01:08:55;;;;;;;4.55;2.25;;;13.70;99.90;;;;;;5043506;28;20024;-71
2022/07/31 01:11:31;;;;;;;4.78;2.10;;;13.80;99.90;;;;;;5047603;28;20056;-71
2022/07/31 01:14:05;;;;;;;6.28;2.60;;;14.00;99.90;;;;;;5043359;28;20385;-69
2022/07/31 01:16:40;;;;;;;4.50;1.95;;;14.20;99.90;;;;;;5038315;28;20033;-71
2022/07/31 01:19:28;;;;;;;3.38;1.40;;;14.30;99.90;;;;;;5040220;28;20103;-72
2022/07/31 01:22:26;;;;;;;4.85;2.53;;;14.60;99.30;;;;;;5038861;28;20458;-69
2022/07/31 01:25:11;;;;;;;3.55;1.52;;;14.90;98.60;;;;;;5040719;28;20021;-74
2022/07/31 01:27:57;;;;;;;4.90;2.17;;;15.10;98.30;;;;;;5037126;28;20021;-71
2022/07/31 01:30:29;;;;;;;6.90;1.85;;;15.30;97.90;;;;;;5036609;28;20025;-76
2022/07/31 01:33:01;;;;;;;2.97;1.60;;;15.50;96.90;;;;;;5038474;28;20033;-72
2022/07/31 01:35:39;;;;;;;5.95;2.10;;;15.70;95.50;;;;;;5035666;28;20021;-72
2022/07/31 01:38:21;;;;;;;2.13;1.40;;;15.70;94.30;;;;;;5036954;28;20342;-71
2022/07/31 01:40:56;;;;;;;4.32;1.40;;;15.90;93.50;;;;;;5021026;28;20047;-72
2022/07/31 01:43:32;;;;;;;3.85;1.50;;;16.00;93.10;;;;;;5039613;28;20061;-71
2022/07/31 01:46:01;;;;;;;4.32;1.30;;;16.20;92.30;;;;;;5034308;28;20528;-71
2022/07/31 01:48:32;;;;;;;6.78;2.20;;;16.20;92.70;;;;;;5038182;28;20019;-71
2022/07/31 01:51:01;;;;;;;3.75;1.83;;;16.30;93.00;;;;;;5038922;28;20025;-73
2022/07/31 01:53:34;;;;;;;3.00;1.98;;;16.50;92.60;;;;;;5037683;28;20701;-72
2022/07/31 01:56:02;;;;;;;6.85;1.45;;;16.50;92.00;;;;;;5039776;28;20413;-71
2022/07/31 01:58:34;;;;;;;3.67;1.75;;;16.60;91.80;;;;;;5035856;28;20045;-71
2022/07/31 02:01:03;;;;;;;4.43;1.87;;;16.70;91.20;;;;;;5038332;28;20024;-72
2022/07/31 02:03:31;;;;;;;5.78;2.10;;;16.80;91.00;;;;;;5046524;28;20312;-71
2022/07/31 02:06:00;;;;;;;4.80;2.17;;;16.80;91.30;;;;;;5040596;28;20036;-71
2022/07/31 02:08:29;;;;;;;3.72;2.30;;;16.90;91.20;;;;;;5036334;28;20028;-72
2022/07/31 02:10:58;;;;;;;5.80;2.20;;;17.00;91.10;;;;;;5038667;28;20040;-72
2022/07/31 02:13:27;;;;;;;3.28;2.58;;;17.20;91.00;;;;;;5037815;28;20017;-72
2022/07/31 02:15:57;;;;;;;3.97;1.80;;;17.40;90.90;;;;;;5041010;28;20501;-73
2022/07/31 02:18:25;;;;;;;2.63;1.90;;;17.50;90.40;;;;;;5058812;28;20496;-71
2022/07/31 02:20:54;;;;;;;6.88;2.10;;;17.70;90.00;;;;;;5058932;28;20032;-73
2022/07/31 02:23:21;;;;;;;3.97;1.73;;;17.80;90.20;;;;;;5060003;28;20016;-73
2022/07/31 02:25:49;;;;;;;5.55;2.10;;;17.70;89.80;;;;;;5057784;28;20032;-77
2022/07/31 02:28:19;;;;;;;4.50;1.80;;;17.80;90.30;;;;;;5055686;28;20024;-77
2022/07/31 02:30:48;;;;;;;3.35;1.48;;;17.90;90.10;;;;;;5037326;28;20182;-73
2022/07/31 02:33:23;;;;;;;4.20;1.90;;;18.10;90.30;;;;;;5039876;28;20021;-73
2022/07/31 02:35:54;;;;;;;3.67;1.95;;;18.20;88.30;;;;;;5037107;28;20033;-78
2022/07/31 02:38:25;;;;;;;4.63;2.20;;;18.30;87.60;;;;;;5042936;28;20461;-77
2022/07/31 02:40:56;;;;;;;3.50;1.90;;;18.40;86.40;;;;;;5047931;28;20032;-76
2022/07/31 02:43:25;;;;;;;8.32;3.10;;;18.60;85.50;;;;;;5039687;28;20017;-73
2022/07/31 02:45:57;;;;;;;4.18;2.10;;;18.70;85.80;;;;;;5037529;28;20021;-73
2022/07/31 02:48:25;;;;;;;4.70;2.15;;;19.00;85.10;;;;;;5040071;28;20025;-72
2022/07/31 02:50:53;;;;;;;6.28;3.08;;;19.30;84.60;;;;;;5037150;28;20027;-71
2022/07/31 02:53:21;;;;;;;4.57;2.10;;;19.70;83.20;;;;;;5052980;28;20092;-72
2022/07/31 02:55:50;;;;;;;3.15;1.98;;;19.80;82.20;;;;;;5038336;28;20029;-72
2022/07/31 02:58:18;;;;;;;4.65;1.80;;;19.80;81.60;;;;;;5039681;28;20389;-73
2022/07/31 03:00:46;;;;;;;10.18;2.72;;;19.80;82.10;;;;;;5037905;28;20500;-72
2022/07/31 03:03:13;;;;;;;5.35;2.47;;;19.70;82.90;;;;;;5038623;28;20032;-73
2022/07/31 03:05:40;;;;;;;4.05;1.60;;;19.60;83.10;;;;;;5055759;28;20051;-70
2022/07/31 03:08:08;;;;;;;4.22;1.60;;;19.40;82.10;;;;;;5061330;28;20412;-70
2022/07/31 03:10:35;;;;;;;2.95;1.50;;;19.10;83.30;;;;;;5062611;28;20028;-70
2022/07/31 03:13:04;;;;;;;3.35;1.58;;;19.10;83.80;;;;;;5061383;28;20066;-71
2022/07/31 03:15:32;;;;;;;5.32;1.70;;;19.10;84.10;;;;;;5063184;28;20024;-70
2022/07/31 03:18:00;;;;;;;4.18;1.70;;;19.20;83.70;;;;;;5043097;28;20028;-73
2022/07/31 03:20:29;;;;;;;3.90;1.88;;;19.20;83.20;;;;;;5042909;28;20483;-72
2022/07/31 03:22:57;;;;;;;4.53;2.00;;;19.30;84.20;;;;;;5053504;28;20425;-73
2022/07/31 03:25:25;;;;;;;4.47;1.95;;;19.40;83.90;;;;;;5062872;28;20021;-70
2022/07/31 03:27:52;;;;;;;3.50;1.45;;;19.30;83.10;;;;;;5060433;28;20056;-72
2022/07/31 03:30:23;;;;;;;5.32;1.83;;;19.30;83.20;;;;;;5042681;28;20021;-71
2022/07/31 03:32:55;;;;;;;2.75;1.30;;;19.50;83.40;;;;;;5041485;28;20018;-70
2022/07/31 03:35:24;;;;;;;3.45;1.50;;;19.60;81.80;;;;;;5043074;28;20082;-69
2022/07/31 03:37:51;;;;;;;4.32;1.83;;;19.60;82.30;;;;;;5042475;28;20401;-72
2022/07/31 03:40:19;;;;;;;5.55;2.03;;;19.70;81.90;;;;;;5045871;28;20063;-70
2022/07/31 03:42:49;;;;;;;3.83;1.55;;;19.80;82.10;;;;;;5061896;28;20039;-69
2022/07/31 03:45:17;;;;;;;4.47;1.60;;;19.80;81.80;;;;;;5060261;28;20618;-69
2022/07/31 03:47:44;;;;;;;3.80;1.80;;;19.80;81.80;;;;;;5061908;28;20024;-69
2022/07/31 03:50:12;;;;;;;5.18;1.50;;;19.80;81.70;;;;;;5059625;28;20031;-70
2022/07/31 03:52:40;;;;;;;3.58;1.50;;;19.70;81.80;;;;;;5044651;28;20048;-70
2022/07/31 03:55:08;;;;;;;2.88;1.52;;;19.60;81.30;;;;;;5061737;28;20027;-71
2022/07/31 03:57:37;;;;;;;5.28;1.60;;;19.60;82.20;;;;;;5061856;28;20048;-72
2022/07/31 04:00:07;;;;;;;3.83;1.95;;;19.70;80.90;;;;;;5062148;28;20036;-72
2022/07/31 04:02:34;;;;;;;4.65;1.73;;;20.00;81.20;;;;;;5060672;28;20695;-73
2022/07/31 04:05:02;;;;;;;2.90;1.50;;;20.20;80.70;;;;;;5046560;28;20974;-71
2022/07/31 04:07:29;;;;;;;4.32;1.23;;;20.40;79.20;;;;;;5039946;28;20021;-70
2022/07/31 04:09:57;;;;;;;2.85;1.27;;;20.50;78.70;;;;;;5041726;28;20492;-69
2022/07/31 04:12:24;;;;;;;5.60;1.70;;;20.60;79.10;;;;;;5040512;28;20024;-71
2022/07/31 04:14:51;;;;;;;6.15;2.08;;;20.90;78.40;;;;;;5041309;28;20013;-70
2022/07/31 04:17:19;;;;;;;7.43;2.67;;;20.90;78.50;;;;;;5056100;28;20094;-71
2022/07/31 04:19:48;;;;;;;4.10;2.15;;;21.00;78.60;;;;;;5061732;28;20086;-71
2022/07/31 04:22:15;;;;;;;4.32;1.85;;;20.80;78.90;;;;;;5061218;28;20121;-73
2022/07/31 04:24:42;;;;;;;4.53;1.60;;;20.70;79.50;;;;;;5052733;28;20029;-71
2022/07/31 04:27:10;;;;;;;4.05;1.50;;;20.50;79.20;;;;;;5041964;28;20059;-74
2022/07/31 04:29:37;;;;;;;5.38;2.10;;;20.10;79.20;;;;;;5059811;28;20025;-70
2022/07/31 04:32:04;;;;;;;4.30;1.50;;;19.80;79.90;;;;;;5061449;28;20683;-72
2022/07/31 04:34:32;;;;;;;3.78;1.30;;;19.30;81.70;;;;;;5059949;28;20031;-71
2022/07/31 04:37:00;;;;;;;3.55;1.80;;;19.00;81.90;;;;;;5045164;28;20031;-71
2022/07/31 04:39:28;;;;;;;5.85;2.03;;;18.90;83.20;;;;;;5040222;28;20370;-71
2022/07/31 04:41:55;;;;;;;3.83;1.38;;;18.80;84.10;;;;;;5060827;28;20115;-75
2022/07/31 04:44:23;;;;;;;3.35;1.45;;;18.60;82.20;;;;;;5049731;28;20482;-72
2022/07/31 04:46:50;;;;;;;4.07;1.33;;;18.50;82.70;;;;;;5041369;28;20082;-68
2022/07/31 04:49:18;;;;;;;4.88;1.38;;;18.50;82.50;;;;;;5040700;28;20055;-70
2022/07/31 04:51:45;;;;;;;3.20;1.63;;;18.40;83.20;;;;;;5043208;28;20021;-71
2022/07/31 04:54:12;;;;;;;4.05;1.40;;;18.40;84.20;;;;;;5061266;28;20024;-76
2022/07/31 04:56:42;;;;;;;5.28;1.70;;;18.40;83.90;;;;;;5058967;28;20480;-72
2022/07/31 04:59:12;;;;;;;2.40;1.20;;;18.30;83.20;;;;;;5057477;28;20060;-72
2022/07/31 05:01:41;;;;;;;2.75;1.20;;;18.30;83.50;;;;;;5035678;28;20078;-71
2022/07/31 05:04:09;;;;;;;5.10;1.60;;;18.30;83.90;;;;;;5036483;28;20108;-71
2022/07/31 05:06:49;;;;;;;2.75;1.75;;;18.30;84.20;;;;;;5030892;28;20107;-74
2022/07/31 05:09:22;;;;;;;;;;;18.30;84.10;;;;;;5038122;28;20036;-70
2022/07/31 05:11:50;;;;;;;3.92;1.83;;;18.20;84.20;;;;;;5035822;28;19913;-71
2022/07/31 05:14:19;;;;;;;3.78;1.85;;;18.30;84.60;;;;;;5036433;28;20028;-71
2022/07/31 05:16:48;;;;;;;4.45;1.33;;;18.20;84.20;;;;;;5036977;28;20025;-69
2022/07/31 05:19:15;;;;;;;2.53;2.20;;;18.10;83.70;;;;;;5035272;28;20501;-70
2022/07/31 05:21:43;;;;;;;3.90;2.00;;;18.10;84.60;;;;;;5037792;28;20029;-69
2022/07/31 05:24:11;;;;;;;4.78;1.20;;;18.10;85.30;;;;;;5046064;28;20172;-68
2022/07/31 05:26:38;;;;;;;2.92;1.30;;;18.00;84.60;;;;;;5037912;28;20107;-71
2022/07/31 05:29:06;;;;;;;4.30;1.42;;;18.00;84.60;;;;;;5034608;28;20037;-71
2022/07/31 05:31:33;;;;;;;3.35;1.30;;;17.90;84.80;;;;;;5018475;28;20449;-70
2022/07/31 05:34:00;;;;;;;4.78;1.38;;;17.90;85.90;;;;;;5019237;28;20025;-70
2022/07/31 05:36:28;;;;;;;4.28;1.33;;;17.90;86.60;;;;;;5019085;28;20124;-73
2022/07/31 05:38:55;;;;;;;3.95;2.63;;;17.80;87.10;;;;;;5039860;28;20112;-72
2022/07/31 05:41:23;;;;;;;5.15;1.42;;;17.80;87.20;;;;;;5051897;28;20392;-73
2022/07/31 05:43:50;;;;;;;3.17;1.42;;;17.70;87.80;;;;;;5057621;28;20477;-76
2022/07/31 05:46:17;;;;;;;4.82;1.40;;;17.60;87.80;;;;;;5041246;28;20025;-73
2022/07/31 05:48:45;;;;;;;3.58;1.77;;;17.60;88.20;;;;;;5038481;28;20086;-69
2022/07/31 05:51:13;;;;;;;4.10;1.40;;;17.50;88.60;;;;;;5038845;28;20023;-71
2022/07/31 05:53:41;;;;;;;2.42;1.38;;;17.40;89.00;;;;;;5055396;28;20021;-73
2022/07/31 05:56:08;;;;;;;4.85;1.60;;;17.40;89.40;;;;;;5042021;28;20033;-72
2022/07/31 05:58:36;;;;;;;3.78;1.60;;;17.30;89.00;;;;;;5039190;28;20124;-69
2022/07/31 06:01:03;;;;;;;2.90;1.25;;;17.20;88.80;;;;;;5036986;28;20228;-69
2022/07/31 06:03:35;;;;;;;5.10;1.50;;;17.20;89.10;;;;;;5039402;28;20018;-69
2022/07/31 06:06:04;;;;;;;8.48;2.35;;;17.10;89.30;;;;;;5036568;28;20066;-69
2022/07/31 06:08:32;;;;;;;6.15;1.35;;;17.10;89.50;;;;;;5039904;28;20746;-73
2022/07/31 06:10:59;;;;;;;3.45;1.52;;;17.10;89.50;;;;;;5037393;28;20024;-72
2022/07/31 06:13:29;;;;;;;4.95;1.27;;;17.00;89.30;;;;;;5039541;28;20480;-73
2022/07/31 06:15:56;;;;;;;3.42;1.23;;;16.90;89.70;;;;;;5036779;28;20017;-71
2022/07/31 06:18:24;;;;;;;3.33;1.45;;;16.90;89.40;;;;;;5038496;28;20025;-69
2022/07/31 06:20:51;;;;;;;3.30;1.50;;;16.90;89.20;;;;;;5037898;28;20033;-71
2022/07/31 06:23:19;;;;;;;2.80;1.50;;;16.90;89.40;;;;;;5038876;28;20021;-70
2022/07/31 06:25:46;;;;;;;5.57;2.03;;;16.80;89.30;;;;;;5045820;28;20021;-72
2022/07/31 06:28:14;;;;;;;3.65;1.48;;;16.80;90.00;;;;;;5037233;28;20025;-71
2022/07/31 06:30:41;;;;;;;5.18;1.60;;;16.70;90.00;;;;;;5038734;28;20036;-69
2022/07/31 06:33:09;;;;;;;4.82;1.63;;;16.70;90.10;;;;;;5051183;28;20105;-70
2022/07/31 06:35:36;;;;;;;5.00;1.60;;;16.70;90.10;;;;;;5047529;28;20158;-71
2022/07/31 06:38:03;;;;;;;4.30;1.70;;;16.60;90.20;;;;;;5037497;28;20013;-71
2022/07/31 06:40:30;;;;;;;3.20;1.63;;;16.50;90.30;;;;;;5037933;28;20104;-69
2022/07/31 06:42:58;;;;;;;4.00;2.00;;;16.60;90.30;;;;;;5052262;28;20025;-69
2022/07/31 06:45:25;;;;;;;5.32;1.92;;;16.50;90.40;;;;;;5048342;28;20021;-71
2022/07/31 06:47:52;;;;;;;4.22;2.17;;;16.40;90.60;;;;;;5037504;28;20037;-71
2022/07/31 06:50:20;;;;;;;3.95;2.15;;;16.40;90.60;;;;;;5037740;28;20029;-72
2022/07/31 06:52:47;;;;;;;5.55;2.53;;;16.40;90.60;;;;;;5038799;28;20033;-76
2022/07/31 06:55:15;;;;;;;11.77;8.55;;;16.30;90.90;;;;;;5035994;28;20118;-70
2022/07/31 06:57:42;;;;;;;10.02;6.15;;;16.30;90.90;;;;;;5038842;28;20048;-71
2022/07/31 07:00:13;;;;;;;6.38;3.85;;;16.20;91.10;;;;;;5043760;28;20060;-80
2022/07/31 07:02:40;;;;;;;6.82;5.97;;;16.20;91.00;;;;;;5048660;28;20045;-73
2022/07/31 07:05:07;;;;;;;5.45;3.45;;;16.10;91.00;;;;;;5036483;28;20013;-71
2022/07/31 07:07:35;;;;;;;5.75;3.75;;;16.10;91.00;;;;;;5038759;28;20100;-71
2022/07/31 07:10:03;;;;;;;6.38;3.83;;;16.10;91.20;;;;;;5037038;28;20027;-70
2022/07/31 07:12:31;;;;;;;8.30;5.28;;;16.10;91.20;;;;;;5038205;28;20025;-76
2022/07/31 07:14:59;;;;;;;5.38;3.40;;;16.00;91.20;;;;;;5044196;28;20104;-77
2022/07/31 07:17:26;;;;;;;6.68;3.25;;;16.00;91.30;;;;;;5037956;28;20462;-73
2022/07/31 07:19:54;;;;;;;6.45;2.75;;;15.90;91.40;;;;;;5051381;28;20039;-70
2022/07/31 07:22:21;;;;;;;4.22;2.67;;;15.90;91.50;;;;;;5057181;28;20362;-70
2022/07/31 07:24:48;;;;;;;6.55;3.90;;;15.90;91.80;;;;;;5053998;28;20013;-74
2022/07/31 07:27:15;;;;;;;4.50;2.92;;;15.90;92.10;;;;;;5044134;28;20024;-71
2022/07/31 07:29:43;;;;;;;4.85;2.60;;;15.80;92.00;;;;;;5059299;28;20487;-71
2022/07/31 07:32:12;;;;;;;4.88;2.28;;;15.70;92.00;;;;;;5057329;28;20020;-72
2022/07/31 07:34:39;;;;;;;4.65;2.75;;;15.70;92.10;;;;;;5054691;28;20025;-70
2022/07/31 07:37:06;;;;;;;9.15;2.30;;;15.80;92.10;;;;;;5035842;28;20044;-69
2022/07/31 07:39:34;;;;;;;5.15;2.25;;;15.70;92.10;;;;;;5034236;28;20037;-72
2022/07/31 07:42:01;;;;;;;6.25;2.70;;;15.70;92.20;;;;;;5037882;28;20124;-72
2022/07/31 07:44:28;;;;;;;4.13;2.20;;;15.70;92.30;;;;;;5036920;28;20025;-72
2022/07/31 07:46:56;;;;;;;3.85;2.08;;;15.70;92.30;;;;;;5038272;28;20021;-71
2022/07/31 07:49:23;;;;;;;3.60;2.35;;;15.60;92.30;;;;;;5035453;28;20539;-71
2022/07/31 07:51:50;;;;;;;4.53;2.60;;;15.60;92.40;;;;;;5048392;28;20028;-75
2022/07/31 07:54:18;;;;;;;6.63;2.47;;;15.60;92.50;;;;;;5039993;28;20021;-71
2022/07/31 07:56:45;;;;;;;3.95;2.00;;;15.60;92.50;;;;;;5041618;28;20025;-70
2022/07/31 07:59:13;;;;;;;7.50;3.05;;;15.50;92.40;;;;;;5040784;28;20513;-72
2022/07/31 08:01:40;;;;;;;4.38;2.47;;;15.50;92.60;;;;;;5041230;28;20044;-72
2022/07/31 08:04:08;;;;;;;6.47;2.92;;;15.50;92.90;;;;;;5032067;28;20021;-74
2022/07/31 08:06:35;;;;;;;7.00;2.97;;;15.40;92.80;;;;;;5055912;28;20032;-74
2022/07/31 08:09:02;;;;;;;4.80;2.88;;;15.40;92.80;;;;;;5044397;28;20075;-73
2022/07/31 08:11:30;;;;;;;4.72;3.35;;;15.40;93.00;;;;;;5040831;28;20040;-71
2022/07/31 08:13:57;;;;;;;5.18;2.75;;;15.40;93.00;;;;;;5041862;28;20012;-71
2022/07/31 08:16:24;;;;;;;6.13;2.90;;;15.30;93.00;;;;;;5042452;28;20380;-72
2022/07/31 08:18:53;;;;;;;5.10;2.22;;;15.40;93.20;;;;;;5040630;28;20025;-69
2022/07/31 08:21:20;;;;;;;15.05;10.00;;;15.30;93.00;;;;;;5046835;28;20508;-70
2022/07/31 08:23:48;;;;;;;44.13;20.83;;;15.30;93.10;;;;;;5044380;28;20032;-72
2022/07/31 08:26:17;;;;;;;10.13;5.88;;;15.30;93.70;;;;;;5040794;28;20021;-73
2022/07/31 08:28:44;;;;;;;10.80;5.85;;;15.20;94.20;;;;;;5040436;28;20739;-73
2022/07/31 08:31:11;;;;;;;8.90;5.80;;;15.20;94.30;;;;;;5039289;28;20669;-71
2022/07/31 08:33:38;;;;;;;8.85;5.70;;;15.10;94.20;;;;;;5022903;28;20013;-72
2022/07/31 08:36:07;;;;;;;10.35;5.72;;;15.10;94.30;;;;;;5040901;28;20543;-69
2022/07/31 08:38:38;;;;;;;10.10;4.63;;;15.00;94.10;;;;;;5040748;28;20021;-71
2022/07/31 08:41:05;;;;;;;7.80;4.18;;;15.10;94.20;;;;;;5039787;28;20501;-73
2022/07/31 08:43:32;;;;;;;6.78;3.97;;;15.00;94.10;;;;;;5039753;28;20833;-69
2022/07/31 08:46:03;;;;;;;8.18;4.30;;;15.10;94.10;;;;;;5042670;28;20021;-68
2022/07/31 08:48:32;;;;;;;7.57;4.43;;;15.00;94.00;;;;;;5039902;28;20477;-68
2022/07/31 08:51:02;;;;;;;5.18;3.78;;;15.10;93.90;;;;;;5038958;28;20031;-69
2022/07/31 08:53:31;;;;;;;8.52;5.47;;;15.10;94.00;;;;;;5040138;28;20056;-68
2022/07/31 08:55:59;;;;;;;8.80;6.55;;;15.10;94.10;;;;;;5038343;28;20021;-71
2022/07/31 08:58:27;;;;;;;7.50;4.97;;;15.00;93.90;;;;;;5039576;28;20047;-69
2022/07/31 09:00:55;;;;;;;8.13;6.50;;;15.00;94.00;;;;;;5039962;28;20033;-73
2022/07/31 09:03:23;;;;;;;10.57;5.97;;;15.00;94.10;;;;;;5052859;28;20109;-71
2022/07/31 09:05:51;;;;;;;7.88;5.28;;;15.10;94.20;;;;;;5046876;28;20100;-72
2022/07/31 09:08:18;;;;;;;8.02;4.47;;;15.00;94.30;;;;;;5039084;28;20021;-71
2022/07/31 09:10:46;;;;;;;8.98;3.80;;;15.00;94.40;;;;;;5040171;28;20064;-71
2022/07/31 09:13:16;;;;;;;7.70;3.95;;;15.00;94.50;;;;;;5052987;28;20077;-70
2022/07/31 09:15:44;;;;;;;7.43;4.53;;;14.90;94.50;;;;;;5039361;28;20493;-68
2022/07/31 09:18:23;;;;;;;9.07;4.15;;;14.90;94.60;;;;;;5038990;28;20025;-70
2022/07/31 09:21:16;;;;;;;7.88;4.63;;;14.90;94.80;;;;;;5032402;28;20378;-69
2022/07/31 09:23:46;;;;;;;6.00;4.10;;;14.90;94.50;;;;;;5037037;28;20037;-69
2022/07/31 09:26:14;;;;;;;6.88;4.05;;;14.80;94.40;;;;;;5037958;28;20021;-71
2022/07/31 09:28:48;;;;;;;6.18;4.15;;;14.80;94.40;;;;;;5039833;28;20028;-69
2022/07/31 09:31:15;;;;;;;8.20;4.18;;;14.90;94.40;;;;;;5038441;28;20032;-70
2022/07/31 09:33:46;;;;;;;6.47;3.25;;;14.90;94.50;;;;;;5057085;28;20082;-71
2022/07/31 09:36:14;;;;;;;5.03;3.28;;;14.80;94.40;;;;;;5042239;28;20473;-77
2022/07/31 09:38:43;;;;;;;6.15;3.88;;;14.80;94.50;;;;;;5021653;28;20037;-77
2022/07/31 09:41:16;;;;;;;6.35;3.38;;;14.80;94.50;;;;;;5047591;28;20040;-72
2022/07/31 09:43:53;;;;;;;5.38;3.83;;;14.80;94.50;;;;;;5041312;28;20037;-73
2022/07/31 09:46:21;;;;;;;7.15;3.80;;;14.80;94.30;;;;;;5037240;28;20025;-74
2022/07/31 09:48:54;;;;;;;8.63;3.78;;;14.80;94.20;;;;;;5039133;28;20021;-74
2022/07/31 09:51:22;;;;;;;11.77;4.65;;;14.80;94.20;;;;;;5035180;28;20099;-71
2022/07/31 09:53:56;;;;;;;7.60;3.40;;;14.80;94.20;;;;;;5036026;28;20091;-75
2022/07/31 09:56:31;;;;;;;4.97;3.00;;;14.80;94.10;;;;;;5033581;28;20055;-72
2022/07/31 09:58:59;;;;;;;5.80;3.08;;;14.80;94.10;;;;;;5038027;28;20044;-71
2022/07/31 10:01:27;;;;;;;5.13;3.00;;;14.80;94.20;;;;;;5038973;28;20112;-75
2022/07/31 10:03:59;;;;;;;7.20;3.38;;;14.70;94.20;;;;;;5042284;28;20754;-70
2022/07/31 10:06:28;;;;;;;4.65;3.15;;;14.70;94.10;;;;;;5035480;28;20059;-70
2022/07/31 10:08:56;;;;;;;7.05;3.85;;;14.80;94.30;;;;;;5034740;28;20021;-71
2022/07/31 10:11:25;;;;;;;5.90;3.33;;;14.70;94.30;;;;;;5035887;28;20028;-69
2022/07/31 10:13:56;;;;;;;6.05;3.13;;;14.70;94.20;;;;;;5043281;28;20050;-73
2022/07/31 10:16:27;;;;;;;5.25;3.30;;;14.70;94.30;;;;;;5040523;28;20045;-72
2022/07/31 10:19:02;;;;;;;6.55;3.40;;;14.70;94.50;;;;;;5039249;28;20024;-74
2022/07/31 10:21:36;;;;;;;4.75;2.70;;;14.70;94.60;;;;;;5046763;28;20227;-70
2022/07/31 10:24:06;;;;;;;5.20;3.13;;;14.70;94.80;;;;;;5038228;28;20391;-71
2022/07/31 10:26:34;;;;;;;5.80;3.92;;;14.60;94.80;;;;;;5039116;28;20371;-76
2022/07/31 10:29:02;;;;;;;9.18;4.70;;;14.60;95.00;;;;;;5037485;28;20377;-74
2022/07/31 10:31:30;;;;;;;6.40;4.90;;;14.60;95.20;;;;;;5054009;28;20753;-77
2022/07/31 10:34:01;;;;;;;4.80;2.90;;;14.50;95.50;;;;;;5058822;28;20031;-74
2022/07/31 10:36:36;;;;;;;7.03;3.17;;;14.60;95.50;;;;;;5034055;28;20025;-78
2022/07/31 10:39:12;;;;;;;4.75;3.50;;;14.50;95.50;;;;;;5051365;28;20735;-77
2022/07/31 10:42:16;;;;;;;5.75;3.42;;;14.40;95.50;;;;;;5057873;28;20032;-74
2022/07/31 10:44:56;;;;;;;6.15;4.25;;;14.40;95.80;;;;;;5057087;28;20031;-77
2022/07/31 10:47:26;;;;;;;7.07;3.88;;;14.40;96.10;;;;;;5037235;28;20064;-75
2022/07/31 10:49:53;;;;;;;5.55;3.47;;;14.30;95.70;;;;;;5037865;28;20435;-73
2022/07/31 10:52:28;;;;;;;5.18;2.88;;;14.30;95.40;;;;;;5036896;28;20025;-73
2022/07/31 10:55:00;;;;;;;8.52;3.10;;;14.30;95.50;;;;;;5038698;28;20040;-74
2022/07/31 10:57:33;;;;;;;5.75;3.17;;;14.30;95.00;;;;;;5039879;28;20037;-73
2022/07/31 11:00:12;;;;;;;;;;;14.30;94.80;;;;;;5058664;28;20060;-74
2022/07/31 11:02:40;;;;;;;4.32;2.40;;;14.30;94.70;;;;;;5052171;28;19916;-73
2022/07/31 11:05:13;;;;;;;4.90;2.05;;;14.40;94.40;;;;;;5037666;28;20025;-74
2022/07/31 11:07:43;;;;;;;4.47;2.10;;;14.40;94.30;;;;;;5037565;28;20056;-74
2022/07/31 11:10:18;;;;;;;6.28;2.40;;;14.40;94.20;;;;;;5037869;28;20025;-73
2022/07/31 11:12:57;;;;;;;5.45;1.80;;;14.40;94.20;;;;;;5038603;28;20068;-73
2022/07/31 11:15:25;;;;;;;6.38;2.20;;;14.50;94.20;;;;;;5041342;28;20182;-73
2022/07/31 11:17:53;;;;;;;3.22;1.85;;;14.50;94.10;;;;;;5038423;28;20021;-73
2022/07/31 11:20:28;;;;;;;3.30;2.17;;;14.50;94.10;;;;;;5037970;28;20021;-73
2022/07/31 11:23:05;;;;;;;5.00;2.53;;;14.50;93.90;;;;;;5038404;28;20044;-73
2022/07/31 11:25:35;;;;;;;6.93;2.63;;;14.50;93.90;;;;;;5019413;28;20029;-76
2022/07/31 11:28:11;;;;;;;3.85;2.13;;;14.50;93.80;;;;;;5055898;28;20024;-73
2022/07/31 11:30:58;;;;;;;5.10;2.78;;;14.50;93.90;;;;;;5060522;28;20095;-73
2022/07/31 11:33:45;;;;;;;5.50;2.45;;;14.50;93.80;;;;;;5060495;28;20108;-73
2022/07/31 11:36:16;;;;;;;4.28;2.20;;;14.50;93.90;;;;;;5047020;28;20029;-72
2022/07/31 11:38:45;;;;;;;4.25;2.00;;;14.50;94.00;;;;;;5040343;28;20514;-73
2022/07/31 11:41:13;;;;;;;4.95;2.25;;;14.50;94.00;;;;;;5023214;28;20062;-76
2022/07/31 11:43:49;;;;;;;3.33;1.83;;;14.40;94.00;;;;;;5023094;28;20025;-73
2022/07/31 11:46:28;;;;;;;3.10;1.90;;;14.40;94.10;;;;;;5042249;28;20022;-73
2022/07/31 11:48:57;;;;;;;3.63;2.30;;;14.40;94.20;;;;;;5043058;28;20104;-74
2022/07/31 11:51:25;;;;;;;4.22;2.03;;;14.40;94.40;;;;;;5041146;28;20118;-74
2022/07/31 11:53:56;;;;;;;4.95;2.45;;;14.40;94.20;;;;;;5041813;28;20017;-75
2022/07/31 11:56:25;;;;;;;5.22;2.10;;;14.40;94.30;;;;;;5052190;28;20392;-74
2022/07/31 11:58:57;;;;;;;3.35;2.03;;;14.30;94.40;;;;;;5061359;28;20063;-79
2022/07/31 12:01:26;;;;;;;3.77;2.00;;;14.30;94.50;;;;;;5060796;28;20033;-75
2022/07/31 12:03:55;;;;;;;4.32;2.33;;;14.30;94.30;;;;;;5049223;28;20052;-77
2022/07/31 12:06:23;;;;;;;5.60;2.10;;;14.30;94.30;;;;;;5041121;28;20040;-78
2022/07/31 12:08:51;;;;;;;4.18;2.20;;;14.30;94.30;;;;;;5040938;28;20052;-78
2022/07/31 12:11:20;;;;;;;5.75;2.13;;;14.20;94.30;;;;;;5040910;28;20017;-75
2022/07/31 12:13:48;;;;;;;5.60;2.45;;;14.10;94.40;;;;;;5040552;28;20539;-75
2022/07/31 12:16:20;;;;;;;3.92;2.10;;;14.20;94.40;;;;;;5041732;28;20431;-74
2022/07/31 12:18:52;;;;;;;4.30;2.10;;;14.10;94.40;;;;;;5040541;28;20730;-77
2022/07/31 12:21:20;;;;;;;5.63;2.10;;;14.10;94.40;;;;;;5039921;28;20029;-74
2022/07/31 12:23:52;;;;;;;4.22;2.20;;;14.10;94.80;;;;;;5048235;28;20017;-79
2022/07/31 12:26:29;;;;;;;3.85;2.78;;;14.10;94.80;;;;;;5045547;28;20493;-74
2022/07/31 12:29:08;;;;;;;5.18;2.30;;;14.10;94.60;;;;;;5041179;28;20025;-74
2022/07/31 12:31:53;;;;;;;4.20;2.33;;;14.00;94.90;;;;;;5038514;28;20036;-75
2022/07/31 12:34:41;;;;;;;3.85;2.45;;;14.00;95.00;;;;;;5040635;28;20112;-76
2022/07/31 12:37:18;;;;;;;3.95;2.38;;;14.00;95.10;;;;;;5041067;28;20112;-77
2022/07/31 12:39:55;;;;;;;5.28;2.45;;;14.00;95.20;;;;;;5048728;28;20155;-76
2022/07/31 12:42:30;;;;;;;3.30;2.22;;;13.90;95.30;;;;;;5060643;28;20028;-74
2022/07/31 12:45:03;;;;;;;5.10;3.08;;;13.90;95.20;;;;;;5057309;28;20017;-74
2022/07/31 12:47:33;;;;;;;4.13;2.60;;;13.80;95.80;;;;;;5059592;28;20095;-73
2022/07/31 12:50:02;;;;;;;3.22;2.22;;;13.80;95.70;;;;;;5060652;28;20029;-73
2022/07/31 12:52:33;;;;;;;5.80;2.42;;;13.80;95.80;;;;;;5059533;28;20043;-73
2022/07/31 12:55:04;;;;;;;5.53;2.13;;;13.80;95.90;;;;;;5043001;28;20017;-77
2022/07/31 12:57:32;;;;;;;4.32;3.03;;;13.70;95.60;;;;;;5059817;28;20118;-72
2022/07/31 12:59:59;;;;;;;3.70;2.38;;;13.80;95.60;;;;;;5059959;28;20021;-72